sensor_id;sensor_type;location;lat;lon;timestamp;pressure;altitude;pressure_sealevel;temperature;humidity
24302;BME280;12421;49.732;20.078;2023-04-02T00:30:04;95729.05;;;9.59;80.63
24302;BME280;12421;49.732;20.078;2023-04-02T00:40:33;95727.95;;;9.54;80.67
24302;BME280;12421;49.732;20.078;2023-04-02T00:51:33;95726.80;;;9.52;80.69
24302;BME280;12421;49.732;20.078;2023-04-02T01:23:54;95743.99;;;9.63;80.66
24302;BME280;12421;49.732;20.078;2023-04-02T01:34:24;95746.83;;;9.62;80.34
24302;BME280;12421;49.732;20.078;2023-04-02T01:44:46;95751.05;;;9.55;80.39
24302;BME280;12421;49.732;20.078;2023-04-02T01:54:52;95761.34;;;9.57;80.77
24302;BME280;12421;49.732;20.078;2023-04-02T02:05:40;95760.36;;;9.67;80.44
24302;BME280;12421;49.732;20.078;2023-04-02T02:16:34;95765.30;;;9.52;80.34
24302;BME280;12421;49.732;20.078;2023-04-02T02:48:52;95780.98;;;9.56;81.29
24302;BME280;12421;49.732;20.078;2023-04-02T02:59:16;95787.42;;;9.64;80.89
24302;BME280;12421;49.732;20.078;2023-04-02T03:21:30;95794.98;;;9.43;81.16
24302;BME280;12421;49.732;20.078;2023-04-02T03:32:15;95801.56;;;9.45;81.62
24302;BME280;12421;49.732;20.078;2023-04-02T03:42:43;95815.04;;;9.46;81.35
24302;BME280;12421;49.732;20.078;2023-04-02T03:53:30;95825.16;;;9.26;81.38
24302;BME280;12421;49.732;20.078;2023-04-02T04:04:14;95831.73;;;9.07;81.20
24302;BME280;12421;49.732;20.078;2023-04-02T04:14:48;95847.16;;;8.90;81.61
24302;BME280;12421;49.732;20.078;2023-04-02T04:36:29;95864.63;;;8.67;82.69
24302;BME280;12421;49.732;20.078;2023-04-02T04:47:47;95874.27;;;8.41;83.14
24302;BME280;12421;49.732;20.078;2023-04-02T04:57:43;95879.59;;;8.26;83.80
24302;BME280;12421;49.732;20.078;2023-04-02T05:08:15;95891.41;;;8.20;84.15
24302;BME280;12421;49.732;20.078;2023-04-02T05:18:47;95894.52;;;8.22;84.38
24302;BME280;12421;49.732;20.078;2023-04-02T05:29:16;95900.73;;;8.28;84.11
24302;BME280;12421;49.732;20.078;2023-04-02T05:39:51;95906.95;;;8.21;84.14
24302;BME280;12421;49.732;20.078;2023-04-02T05:50:23;95917.77;;;8.12;84.37
24302;BME280;12421;49.732;20.078;2023-04-02T06:01:06;95927.23;;;8.12;84.37
24302;BME280;12421;49.732;20.078;2023-04-02T06:12:02;95933.57;;;8.08;84.53
24302;BME280;12421;49.732;20.078;2023-04-02T06:22:37;95942.63;;;8.09;84.50
24302;BME280;12421;49.732;20.078;2023-04-02T06:44:21;95963.52;;;8.26;84.35
24302;BME280;12421;49.732;20.078;2023-04-02T06:54:56;95969.68;;;8.22;84.42
24302;BME280;12421;49.732;20.078;2023-04-02T07:05:28;95982.00;;;8.17;84.98
24302;BME280;12421;49.732;20.078;2023-04-02T07:16:03;95996.46;;;8.21;84.52
24302;BME280;12421;49.732;20.078;2023-04-02T07:26:17;96000.05;;;8.27;84.55
24302;BME280;12421;49.732;20.078;2023-04-02T07:37:03;96015.40;;;8.29;84.20
24302;BME280;12421;49.732;20.078;2023-04-02T07:58:42;96036.08;;;8.77;83.03
24302;BME280;12421;49.732;20.078;2023-04-02T08:09:19;96038.11;;;9.09;82.05
24302;BME280;12421;49.732;20.078;2023-04-02T08:20:00;96042.82;;;9.00;81.40
24302;BME280;12421;49.732;20.078;2023-04-02T08:30:34;96055.40;;;8.92;80.80
24302;BME280;12421;49.732;20.078;2023-04-02T09:04:02;96077.19;;;8.68;81.23
24302;BME280;12421;49.732;20.078;2023-04-02T09:36:54;96125.95;;;8.26;82.04
24302;BME280;12421;49.732;20.078;2023-04-02T09:59:36;96179.20;;;8.32;81.42
24302;BME280;12421;49.732;20.078;2023-04-02T10:21:54;96239.11;;;8.63;79.20
24302;BME280;12421;49.732;20.078;2023-04-02T10:32:17;96269.00;;;8.77;78.08
24302;BME280;12421;49.732;20.078;2023-04-02T10:42:36;96283.66;;;8.55;76.69
24302;BME280;12421;49.732;20.078;2023-04-02T11:03:49;96339.33;;;7.86;75.36
24302;BME280;12421;49.732;20.078;2023-04-02T11:14:36;96366.92;;;7.48;74.63
24302;BME280;12421;49.732;20.078;2023-04-02T11:24:48;96385.83;;;7.17;74.23
24302;BME280;12421;49.732;20.078;2023-04-02T11:34:59;96402.61;;;6.80;74.19
24302;BME280;12421;49.732;20.078;2023-04-02T11:55:40;96435.14;;;6.59;74.80
24302;BME280;12421;49.732;20.078;2023-04-02T12:06:10;96447.20;;;6.48;74.50
24302;BME280;12421;49.732;20.078;2023-04-02T12:16:37;96450.46;;;6.71;74.99
24302;BME280;12421;49.732;20.078;2023-04-02T12:27:07;96451.56;;;6.99;74.32
24302;BME280;12421;49.732;20.078;2023-04-02T12:37:40;96460.77;;;7.07;73.77
24302;BME280;12421;49.732;20.078;2023-04-02T12:47:44;96462.44;;;6.86;74.63
24302;BME280;12421;49.732;20.078;2023-04-02T12:58:25;96481.49;;;6.74;75.81
24302;BME280;12421;49.732;20.078;2023-04-02T13:08:40;96494.59;;;6.68;75.79
24302;BME280;12421;49.732;20.078;2023-04-02T13:18:47;96510.52;;;6.49;76.30
24302;BME280;12421;49.732;20.078;2023-04-02T13:39:29;96529.18;;;6.34;75.58
24302;BME280;12421;49.732;20.078;2023-04-02T13:49:35;96532.85;;;6.23;76.41
24302;BME280;12421;49.732;20.078;2023-04-02T14:00:06;96537.91;;;6.22;76.64
24302;BME280;12421;49.732;20.078;2023-04-02T14:32:13;96561.77;;;6.05;77.97
24302;BME280;12421;49.732;20.078;2023-04-02T14:42:49;96566.30;;;6.13;77.75
24302;BME280;12421;49.732;20.078;2023-04-02T14:52:57;96579.04;;;6.08;77.40
24302;BME280;12421;49.732;20.078;2023-04-02T15:14:54;96586.69;;;5.94;77.97
24302;BME280;12421;49.732;20.078;2023-04-02T15:25:36;96602.02;;;5.94;77.79
24302;BME280;12421;49.732;20.078;2023-04-02T15:35:46;96618.05;;;5.98;77.75
24302;BME280;12421;49.732;20.078;2023-04-02T16:17:47;96677.04;;;5.41;77.81
24302;BME280;12421;49.732;20.078;2023-04-02T16:28:07;96690.79;;;5.43;78.04
24302;BME280;12421;49.732;20.078;2023-04-02T16:48:36;96722.26;;;5.37;78.90
24302;BME280;12421;49.732;20.078;2023-04-02T17:08:59;96749.23;;;5.11;77.74
24302;BME280;12421;49.732;20.078;2023-04-02T17:19:12;96765.34;;;4.80;77.80
24302;BME280;12421;49.732;20.078;2023-04-02T17:29:31;96773.84;;;4.77;78.37
24302;BME280;12421;49.732;20.078;2023-04-02T17:39:53;96779.11;;;4.64;78.86
24302;BME280;12421;49.732;20.078;2023-04-02T17:51:04;96793.31;;;4.59;79.14
24302;BME280;12421;49.732;20.078;2023-04-02T18:11:51;96816.63;;;4.62;78.35
24302;BME280;12421;49.732;20.078;2023-04-02T18:32:58;96842.55;;;4.48;78.56
24302;BME280;12421;49.732;20.078;2023-04-02T18:43:19;96858.90;;;4.34;78.71
24302;BME280;12421;49.732;20.078;2023-04-02T18:53:30;96867.73;;;4.17;78.89
24302;BME280;12421;49.732;20.078;2023-04-02T19:04:16;96871.13;;;4.11;79.26
24302;BME280;12421;49.732;20.078;2023-04-02T19:14:26;96873.61;;;3.90;79.41
24302;BME280;12421;49.732;20.078;2023-04-02T19:35:05;96882.34;;;3.93;80.63
24302;BME280;12421;49.732;20.078;2023-04-02T19:45:28;96894.84;;;4.05;80.58
24302;BME280;12421;49.732;20.078;2023-04-02T19:55:39;96899.96;;;4.11;80.58
24302;BME280;12421;49.732;20.078;2023-04-02T20:05:46;96906.74;;;4.12;79.93
24302;BME280;12421;49.732;20.078;2023-04-02T20:15:54;96906.13;;;4.05;79.77
24302;BME280;12421;49.732;20.078;2023-04-02T20:26:01;96911.11;;;4.13;79.77
24302;BME280;12421;49.732;20.078;2023-04-02T20:36:31;96915.38;;;4.08;79.76
24302;BME280;12421;49.732;20.078;2023-04-02T20:46:42;96921.06;;;3.93;80.15
24302;BME280;12421;49.732;20.078;2023-04-02T20:56:48;96931.05;;;3.98;80.30
24302;BME280;12421;49.732;20.078;2023-04-02T21:06:54;96932.14;;;3.90;79.87
24302;BME280;12421;49.732;20.078;2023-04-02T21:16:59;96941.77;;;3.83;79.52
24302;BME280;12421;49.732;20.078;2023-04-02T21:27:08;96944.46;;;3.78;79.47
24302;BME280;12421;49.732;20.078;2023-04-02T21:37:14;96941.02;;;3.69;80.01
24302;BME280;12421;49.732;20.078;2023-04-02T21:47:21;96940.58;;;3.74;80.44
24302;BME280;12421;49.732;20.078;2023-04-02T21:57:33;96944.69;;;3.71;79.97
24302;BME280;12421;49.732;20.078;2023-04-02T22:07:58;96950.19;;;3.46;80.63
24302;BME280;12421;49.732;20.078;2023-04-02T22:18:10;96951.30;;;3.49;80.72
24302;BME280;12421;49.732;20.078;2023-04-02T22:28:32;96962.80;;;3.53;80.61
24302;BME280;12421;49.732;20.078;2023-04-02T22:38:47;96968.39;;;3.26;79.39
24302;BME280;12421;49.732;20.078;2023-04-02T22:48:55;96970.84;;;3.18;80.10
24302;BME280;12421;49.732;20.078;2023-04-02T22:59:00;96969.25;;;2.97;80.32
24302;BME280;12421;49.732;20.078;2023-04-02T23:09:12;96976.79;;;2.74;79.55
24302;BME280;12421;49.732;20.078;2023-04-02T23:19:36;96982.23;;;2.62;79.45
24302;BME280;12421;49.732;20.078;2023-04-02T23:29:43;96988.56;;;2.57;79.73
24302;BME280;12421;49.732;20.078;2023-04-02T23:39:57;96995.83;;;2.49;79.83
24302;BME280;12421;49.732;20.078;2023-04-02T23:50:52;96995.30;;;2.40;80.24
